This is the latest recevied weather packets stored in our database for station/object KD9ZDW. If no packets are shown the sender has not sent any weather packets the latest 10 day(s).
| Time | Temp. | Humidity | Pressure | Rain* | Wind** | Luminosity | Snow |
|---|---|---|---|---|---|---|---|
| 1777477457 | 14.44° C | 70% | 1012.9 hPa | 0 mm | - | 214 W/m² | - |
| 1777477153 | 15° C | 69% | 1012.9 hPa | 0 mm | - | 240 W/m² | - |
| 1777476850 | 14.44° C | 72% | 1012.9 hPa | 0 mm | - | 281 W/m² | - |
| 1777476548 | 14.44° C | 71% | 1013 hPa | 0 mm | - | 237 W/m² | - |
| 1777476244 | 15° C | 70% | 1012.9 hPa | 0 mm | - | 238 W/m² | - |
| 1777475939 | 14.44° C | 73% | 1012.8 hPa | 0 mm | - | 263 W/m² | - |
| 1777475636 | 14.44° C | 73% | 1012.8 hPa | 0 mm | - | 292 W/m² | - |
| 1777475333 | 13.33° C | 75% | 1013 hPa | 0 mm | - | 516 W/m² | - |
| 1777475033 | 13.89° C | 74% | 1012.9 hPa | 0 mm | - | 253 W/m² | - |
| 1777474730 | 13.33° C | 75% | 1012.9 hPa | 0 mm | - | 273 W/m² | - |
| 1777474426 | 13.33° C | 77% | 1013 hPa | 0 mm | - | 173 W/m² | - |
| 1777474122 | 12.78° C | 77% | 1013.1 hPa | 0 mm | - | 204 W/m² | - |
| 1777473821 | 12.78° C | 78% | 1013 hPa | 0 mm | - | 173 W/m² | - |
| 1777473517 | 12.78° C | 80% | 1013.1 hPa | 0 mm | - | 185 W/m² | - |
| 1777473213 | 12.78° C | 78% | 1013 hPa | 0 mm | - | 208 W/m² | - |
| 1777472910 | 12.22° C | 79% | 1013.1 hPa | 0 mm | - | 196 W/m² | - |
| 1777472606 | 12.22° C | 82% | 1013.2 hPa | 0 mm | - | 195 W/m² | - |
| 1777472303 | 12.22° C | 81% | 1013.2 hPa | 0 mm | - | 159 W/m² | - |
| 1777472000 | 12.22° C | 82% | 1013.2 hPa | 0 mm | - | 153 W/m² | - |
| 1777471695 | 12.22° C | 82% | 1013.2 hPa | 0 mm | - | 144 W/m² | - |
| 1777471392 | 11.67° C | 83% | 1013.3 hPa | 0 mm | - | 144 W/m² | - |
| 1777471089 | 11.67° C | 83% | 1013.1 hPa | 0 mm | - | 134 W/m² | - |
| 1777470786 | 11.67° C | 83% | 1013.3 hPa | 0 mm | - | 118 W/m² | - |
| 1777470482 | 11.67° C | 84% | 1013.5 hPa | 0 mm | - | 102 W/m² | - |
| 1777470178 | 11.67° C | 85% | 1013.6 hPa | 0 mm | - | 87 W/m² | - |
* Rain latest hour (hover to see other rain measurements)
** Current wind speed in m/s (hover to see current wind gust speed)